CheckWX is a tool to help pilots better visualize weather data.  It is not intended as a substitute for an official pre-flight weather briefing.

13:43:21 UTC

KDDH METAR
William H Morse State Airport
Bennington, Vermont, USA
Current

49 mins ago

KDDH 201254Z AUTO 00000KT 10SM OVC020 27/23 A2987 RMK AO2 SLP107 T02670228
Observed
Jul-20 @ 12:54 UTC
Visibility
10 SM
Flight Rules
MVFR
Cloud Levels
  • Overcast at 2,000' AGL
Temperature
27°C / 81°F
Dewpoint
23°C / 73°F
Heat Index
30°C / 86°F
Humidity
79%
Altimeter
29.87" Hg
Pressure
1011.52 hPa
Previous

2 hours ago

KDDH 201154Z AUTO 21005KT 10SM CLR 27/23 A2987 RMK AO2 SLP107 T02670228 10267 20222 50010
Observed
Jul-20 @ 11:54 UTC
Wind
  • 210° at 5 KTS
Visibility
10 SM
Flight Rules
VFR
Cloud Levels
  • Clear skies
Temperature
27°C / 81°F
Dewpoint
23°C / 73°F
Heat Index
30°C / 86°F
Humidity
79%
Altimeter
29.87" Hg
Pressure
1011.52 hPa
Previous

3 hours ago

KDDH 201054Z AUTO 21003KT 10SM SCT028 SCT050 25/22 A2987 RMK AO2 SLP107 T02500222
Observed
Jul-20 @ 10:54 UTC
Wind
  • 210° at 3 KTS
Visibility
10 SM
Flight Rules
VFR
Cloud Levels
  • Scattered at 2,800' AGL
  • Scattered at 5,000' AGL
Temperature
25°C / 77°F
Dewpoint
22°C / 72°F
Humidity
83%
Altimeter
29.87" Hg
Pressure
1011.52 hPa